Frank Pais International Airport
MUHG : now visible

Aeroporto :











RITROVATECI SU...

 
LOGIN :

Iscrizione | Disclaimer

   EN    FR    IT 

 









Sommario :    VFR   VFR Marginale   IFR   IFR Intensivo   IFR Molto Intensivo
Visibilità : 
Base nubi : 
>= 8 km
>= 3000ft
5 / 8 km
1000 / 3000 ft
1500m / 5 km
500 / 1000 ft
800 / 1500m
200 / 500 ft
< 800m
< 200 ft
Simboli :   Temporali  Nebbia  Neve Forte  Precipitazioni Forti  Vento > 20 kt






- Altitudine del aeroporto : 361 ft
- Codice IATA : HOG


MUHG - Frank Pais International

ULTIMO METAR :
  • 231950Z 05016KT 020V080 9999 SCT025 27/18 Q1015

METARs OBSOLETI :
  • 231850Z 07013KT 020V110 9000 SCT025 BKN070 28/18 Q1016
  • 231750Z 04014KT 360V070 9000 SCT025 BKN070 28/17 Q1017

TAF MUHG
Valido dal 23 a 18 ore il 24 a 18 ore UTC


231700Z 2318/2418 06016KT 9000 SCT020
TEMPO 2318/2324 5000 SHRA BKN018
BECMG 2401/2403 07006KT
BECMG 2415/2417 09010KT



MetMap, La meteo Aeronautica in un colpo d'occhio ! - Copyright ORBIFLY Dicembre 2007 - Disclaimer

ORBIFLY MET'MAP TEAM :

Programmazione e sviluppo : Alexandra Zaïnal
Concezione : Baudouin d'Aumeries
Aiuto per la programmazione : Marc-Olivier Méhu
Supporto tecnico e logistico : Manuel Goepfert
Aiuto per la traduzione : Arnaldo La Scala

Contatto : metmap@orbifly.com




FONTI E CREDITI :

   NOAA       Earth
Advisory